Innsbruck, Austria
Current Conditions -  °F | °C
As of 12:50 PM on Friday 19 Dec 2014 (Local Time) from LOWI Reporting Station
Clear Clear  
Wind Chill: 42°   Ceiling: Unl
Heat Index: 45°   Visibility: 6mi
Dew Point: 41°   Wind: 5mph
Humidity: 87%   Direction: 270°W
Pressure: 30.15"   Gusts: NA
Location:  47.28°N, 11.41°E
Report Text: LOWI 191050Z 27004KT 240V300 CAVOK 07/05 Q1021 NOSIG
Loading
Personal Weather Stations






























Interactive Weather Map New forecast layout! Learn more

10-Day Weather Forecast

Advertisements
Track Severe Weather on mobile